createdAt,value
2018-11-26T00:02:00.084Z,50.53
2018-11-26T00:04:27.737Z,52.20
2018-11-26T00:06:55.379Z,49.77
2018-11-26T00:09:25.502Z,51.90
2018-11-26T00:11:54.801Z,49.60
2018-11-26T00:14:23.530Z,49.60
2018-11-26T00:16:51.968Z,52.10
2018-11-26T00:19:21.018Z,53.80
2018-11-26T00:21:48.787Z,54.10
2018-11-26T00:24:16.561Z,51.33
2018-11-26T00:26:44.354Z,51.90
2018-11-26T00:29:14.279Z,53.40
2018-11-26T00:31:41.874Z,51.13
2018-11-26T00:34:09.430Z,51.27
2018-11-26T00:36:37.284Z,51.27
2018-11-26T00:39:07.420Z,52.43
2018-11-26T00:41:35.139Z,52.00
2018-11-26T00:44:02.801Z,52.33
2018-11-26T00:46:30.358Z,50.30
2018-11-26T00:48:57.839Z,53.63
2018-11-26T00:51:25.352Z,53.73
2018-11-26T00:53:52.845Z,52.80
2018-11-26T00:56:20.308Z,52.27
2018-11-26T00:58:47.850Z,51.13
2018-11-26T01:01:15.530Z,52.03
2018-11-26T01:03:43.043Z,53.80
2018-11-26T01:06:10.869Z,52.93
2018-11-26T01:08:39.421Z,51.87
2018-11-26T01:11:07.284Z,51.50
2018-11-26T01:13:34.963Z,51.90
2018-11-26T01:16:02.495Z,53.57
2018-11-26T01:18:30.272Z,56.60
2018-11-26T01:20:57.797Z,51.67
2018-11-26T01:23:25.491Z,52.93
2018-11-26T01:25:52.959Z,52.60
2018-11-26T01:28:20.523Z,52.57
2018-11-26T01:30:48.091Z,55.23
2018-11-26T01:33:16.569Z,55.30
2018-11-26T01:35:44.311Z,53.63
2018-11-26T01:38:11.784Z,52.60
2018-11-26T01:40:45.208Z,50.53
2018-11-26T01:43:12.720Z,50.13
2018-11-26T01:45:41.411Z,52.87
2018-11-26T01:48:08.941Z,52.40
2018-11-26T01:50:36.440Z,51.80
2018-11-26T01:53:05.011Z,51.53
2018-11-26T01:55:32.572Z,53.27
2018-11-26T01:58:00.233Z,52.00
2018-11-26T02:00:27.864Z,49.60
2018-11-26T02:02:55.387Z,48.30
2018-11-26T02:05:23.012Z,51.80
2018-11-26T02:07:50.497Z,49.60
2018-11-26T02:10:19.719Z,49.27
2018-11-26T02:12:47.536Z,51.50
2018-11-26T02:15:24.926Z,49.77
2018-11-26T02:17:52.493Z,45.57
2018-11-26T02:20:20.044Z,49.10
2018-11-26T02:22:47.601Z,47.73
2018-11-26T02:25:15.105Z,48.20
2018-11-26T02:27:42.679Z,46.90
2018-11-26T02:30:10.324Z,44.90
2018-11-26T02:32:37.773Z,44.50
2018-11-26T02:35:06.242Z,46.20
2018-11-26T02:37:33.724Z,46.30
2018-11-26T02:40:01.353Z,46.10
2018-11-26T02:42:28.897Z,45.87
2018-11-26T02:44:56.397Z,43.97
2018-11-26T02:47:24.031Z,44.37
2018-11-26T02:49:51.564Z,44.57
2018-11-26T02:52:19.204Z,43.20
2018-11-26T02:54:46.792Z,43.37
2018-11-26T02:57:14.359Z,46.57
2018-11-26T02:59:41.871Z,44.80
2018-11-26T03:02:10.201Z,42.70
2018-11-26T03:04:37.708Z,44.73
2018-11-26T03:07:05.736Z,45.33
2018-11-26T03:09:33.208Z,44.80
2018-11-26T03:12:00.738Z,42.03
2018-11-26T03:14:28.298Z,44.80
2018-11-26T03:16:56.347Z,41.33
2018-11-26T03:19:24.960Z,42.20
2018-11-26T03:21:52.450Z,42.90
2018-11-26T03:24:20.278Z,41.37
2018-11-26T03:26:47.789Z,44.03
2018-11-26T03:29:15.396Z,42.10
2018-11-26T03:31:43.076Z,40.37
2018-11-26T03:34:10.561Z,40.93
2018-11-26T03:36:38.066Z,41.37
2018-11-26T03:39:06.768Z,42.73
2018-11-26T03:41:34.308Z,41.37
2018-11-26T03:44:02.047Z,39.17
2018-11-26T03:46:29.612Z,39.57
2018-11-26T03:48:57.287Z,37.80
2018-11-26T03:51:24.864Z,37.50
2018-11-26T03:53:52.357Z,37.20
2018-11-26T03:56:20.093Z,37.80
2018-11-26T03:58:47.645Z,39.10
2018-11-26T04:01:15.136Z,36.77
2018-11-26T04:03:43.285Z,38.43
2018-11-26T04:06:10.803Z,39.33
2018-11-26T04:08:38.372Z,38.27
2018-11-26T04:11:05.938Z,37.57
2018-11-26T04:13:33.419Z,36.77
2018-11-26T04:18:39.211Z,37.30
2018-11-26T04:21:06.700Z,37.50
2018-11-26T04:23:34.201Z,37.10
2018-11-26T04:26:01.731Z,37.27
2018-11-26T04:28:29.308Z,37.70
2018-11-26T04:30:57.872Z,38.03
2018-11-26T04:33:25.351Z,35.97
2018-11-26T04:35:52.856Z,37.93
2018-11-26T04:38:20.375Z,36.20
2018-11-26T04:40:48.534Z,35.90
2018-11-26T04:43:16.000Z,37.53
2018-11-26T04:45:43.514Z,36.50
2018-11-26T04:48:10.979Z,35.97
2018-11-26T04:50:38.604Z,37.20
2018-11-26T04:53:06.218Z,37.37
2018-11-26T04:55:33.743Z,36.77
2018-11-26T04:58:01.363Z,38.37
2018-11-26T05:00:29.082Z,35.27
2018-11-26T05:02:57.344Z,36.77
2018-11-26T05:05:24.950Z,38.37
2018-11-26T05:07:52.474Z,35.50
2018-11-26T05:10:20.115Z,35.93
2018-11-26T05:12:47.741Z,35.47
2018-11-26T05:15:15.448Z,36.97
2018-11-26T05:17:43.000Z,34.93
2018-11-26T05:20:11.625Z,35.70
2018-11-26T05:22:39.238Z,39.07
2018-11-26T05:25:08.439Z,36.80
2018-11-26T05:27:36.376Z,36.93
2018-11-26T05:30:07.135Z,34.67
2018-11-26T05:32:34.743Z,37.87
2018-11-26T05:35:02.287Z,35.07
2018-11-26T05:37:29.890Z,35.60
2018-11-26T05:39:57.511Z,35.03
2018-11-26T05:42:28.801Z,32.67
2018-11-26T05:44:52.669Z,33.70
2018-11-26T05:47:20.188Z,31.87
2018-11-26T05:49:47.753Z,33.13
2018-11-26T05:52:15.511Z,33.67
2018-11-26T05:54:43.082Z,33.50
2018-11-26T05:57:11.410Z,33.90
2018-11-26T05:59:39.995Z,35.23
2018-11-26T06:02:08.201Z,35.43
2018-11-26T06:04:35.911Z,34.27
2018-11-26T06:07:04.031Z,34.50
2018-11-26T06:09:31.612Z,34.10
2018-11-26T06:11:59.178Z,31.60
2018-11-26T06:14:26.768Z,32.40
2018-11-26T06:16:54.272Z,32.57
2018-11-26T06:19:21.874Z,33.33
2018-11-26T06:21:50.638Z,34.00
2018-11-26T06:24:18.312Z,33.47
2018-11-26T06:26:45.890Z,34.03
2018-11-26T06:29:13.491Z,32.63
2018-11-26T06:31:41.213Z,33.40
2018-11-26T06:34:08.851Z,31.97
2018-11-26T06:36:36.539Z,31.47
2018-11-26T06:39:07.045Z,31.10
2018-11-26T06:41:34.606Z,30.53
2018-11-26T06:44:02.164Z,30.70
2018-11-26T06:46:29.747Z,32.63
2018-11-26T06:48:57.258Z,32.50
2018-11-26T06:51:24.967Z,31.87
2018-11-26T06:53:52.635Z,30.80
2018-11-26T06:56:20.226Z,31.37
2018-11-26T06:58:47.905Z,32.60
2018-11-26T07:01:15.497Z,32.37
2018-11-26T07:03:45.477Z,34.23
2018-11-26T07:06:20.678Z,30.53
2018-11-26T07:08:48.228Z,32.30
2018-11-26T07:11:15.750Z,30.57
2018-11-26T07:13:43.306Z,31.77
2018-11-26T07:16:10.843Z,33.43
2018-11-26T07:18:38.360Z,32.13
2018-11-26T07:21:06.332Z,31.07
2018-11-26T07:23:33.864Z,32.77
2018-11-26T07:26:01.909Z,32.97
2018-11-26T07:28:29.483Z,32.77
2018-11-26T07:30:57.015Z,31.70
2018-11-26T07:33:24.504Z,31.70
2018-11-26T07:35:52.058Z,31.50
2018-11-26T07:38:19.660Z,32.10
2018-11-26T07:40:47.678Z,31.20
2018-11-26T07:43:15.286Z,31.47
2018-11-26T07:45:42.848Z,31.97
2018-11-26T07:48:11.364Z,31.37
2018-11-26T07:50:38.885Z,31.30
2018-11-26T07:53:08.386Z,31.17
2018-11-26T07:55:36.302Z,33.93
2018-11-26T07:58:04.125Z,33.30
2018-11-26T08:00:31.905Z,32.17
2018-11-26T08:02:59.652Z,28.90
2018-11-26T08:05:27.146Z,33.13
2018-11-26T08:07:54.704Z,30.93
2018-11-26T08:10:23.050Z,31.20
2018-11-26T08:12:51.739Z,33.73
2018-11-26T08:15:22.442Z,33.23
2018-11-26T08:17:49.244Z,32.93
2018-11-26T08:20:16.973Z,31.67
2018-11-26T08:22:44.598Z,30.63
2018-11-26T08:25:13.285Z,32.17
2018-11-26T08:27:41.585Z,29.70
2018-11-26T08:30:26.208Z,31.93
2018-11-26T08:32:57.589Z,31.37
2018-11-26T08:35:25.852Z,32.47
2018-11-26T08:39:00.722Z,30.10
2018-11-26T08:41:35.340Z,30.23
2018-11-26T08:44:09.625Z,29.03
2018-11-26T08:46:42.617Z,30.27
2018-11-26T08:49:12.818Z,31.03
2018-11-26T08:51:40.597Z,29.53
2018-11-26T08:54:08.199Z,31.77
2018-11-26T08:56:35.807Z,30.17
2018-11-26T08:59:03.536Z,32.83
2018-11-26T09:01:32.942Z,34.00
2018-11-26T09:04:03.831Z,35.00
2018-11-26T09:06:31.728Z,32.10
2018-11-26T09:08:59.388Z,30.50
2018-11-26T09:11:27.624Z,32.37
2018-11-26T09:13:55.344Z,32.80
2018-11-26T09:16:22.951Z,31.07
2018-11-26T09:18:50.856Z,34.50
2018-11-26T09:21:18.336Z,30.63
2018-11-26T09:23:46.851Z,31.87
2018-11-26T09:26:14.342Z,30.43
2018-11-26T09:28:41.890Z,31.33
2018-11-26T09:31:09.472Z,33.73
2018-11-26T09:33:37.118Z,32.20
2018-11-26T09:36:04.670Z,32.10
2018-11-26T09:38:32.219Z,30.67
2018-11-26T09:40:59.945Z,32.60
2018-11-26T09:43:27.530Z,31.17
2018-11-26T09:45:55.071Z,30.20
2018-11-26T09:48:22.695Z,31.00
2018-11-26T09:50:50.256Z,32.07
2018-11-26T09:53:17.725Z,31.90
2018-11-26T09:55:45.205Z,32.70
2018-11-26T09:58:12.775Z,31.83
2018-11-26T10:00:40.304Z,33.33
2018-11-26T10:03:07.946Z,31.37
2018-11-26T10:05:35.643Z,29.23
2018-11-26T10:08:04.313Z,30.27
2018-11-26T10:10:31.825Z,34.10
2018-11-26T10:12:59.330Z,32.23
2018-11-26T10:15:27.258Z,34.07
2018-11-26T10:17:54.838Z,31.73
2018-11-26T10:20:22.338Z,30.07
2018-11-26T10:22:50.935Z,30.80
2018-11-26T10:25:20.444Z,32.83
2018-11-26T10:27:48.023Z,31.27
2018-11-26T10:30:18.361Z,29.83
2018-11-26T10:32:46.532Z,30.67
2018-11-26T10:35:15.874Z,28.70
2018-11-26T10:37:43.525Z,30.93
2018-11-26T10:40:13.315Z,28.80
2018-11-26T10:42:41.799Z,30.60
2018-11-26T10:45:10.796Z,29.00
2018-11-26T10:47:38.327Z,28.47
2018-11-26T10:50:08.200Z,29.57
2018-11-26T10:52:36.439Z,28.83
2018-11-26T10:55:10.380Z,30.77
2018-11-26T10:57:38.277Z,28.93
2018-11-26T11:00:08.287Z,29.03
2018-11-26T11:02:42.095Z,29.50
2018-11-26T11:05:09.826Z,29.07
2018-11-26T11:07:37.629Z,30.60
2018-11-26T11:10:08.999Z,29.43
2018-11-26T11:12:36.504Z,28.90
2018-11-26T11:15:05.652Z,28.80
2018-11-26T11:17:33.337Z,30.03
2018-11-26T11:20:00.948Z,30.40
2018-11-26T11:22:28.304Z,28.23
2018-11-26T11:24:55.915Z,28.77
2018-11-26T11:27:23.479Z,28.67
2018-11-26T11:29:51.070Z,30.40
2018-11-26T11:32:18.559Z,28.63
2018-11-26T11:34:46.634Z,30.30
2018-11-26T11:37:14.326Z,28.00
2018-11-26T11:39:41.839Z,29.30
2018-11-26T11:42:09.648Z,28.87
2018-11-26T11:44:38.204Z,29.00
2018-11-26T11:47:05.790Z,28.97
2018-11-26T11:49:33.657Z,26.63
2018-11-26T11:52:01.171Z,31.23
2018-11-26T11:54:28.683Z,35.57
2018-11-26T11:56:56.187Z,28.00
2018-11-26T11:59:23.685Z,26.93
2018-11-26T12:01:51.258Z,28.50
2018-11-26T12:04:18.868Z,27.87
2018-11-26T12:06:46.326Z,26.53
2018-11-26T12:09:13.824Z,25.70
2018-11-26T12:11:41.329Z,27.13
2018-11-26T12:14:08.947Z,25.60
2018-11-26T12:16:36.340Z,24.40
2018-11-26T12:19:05.600Z,25.47
2018-11-26T12:21:33.363Z,23.87
2018-11-26T12:24:00.858Z,25.53
2018-11-26T12:26:29.525Z,25.60
2018-11-26T12:28:57.450Z,23.47
2018-11-26T12:31:25.080Z,24.23
2018-11-26T12:33:52.716Z,24.67
2018-11-26T12:36:20.234Z,23.37
2018-11-26T12:38:47.800Z,21.50
2018-11-26T12:41:15.396Z,21.57
2018-11-26T12:43:43.143Z,20.27
2018-11-26T12:46:10.699Z,23.73
2018-11-26T12:48:38.287Z,21.60
2018-11-26T12:51:05.794Z,22.37
2018-11-26T12:53:33.412Z,22.97
2018-11-26T12:56:01.017Z,24.23
2018-11-26T12:58:28.603Z,22.17
2018-11-26T13:00:56.119Z,20.63
2018-11-26T13:03:23.790Z,21.33
2018-11-26T13:05:51.336Z,21.00
2018-11-26T13:08:18.812Z,21.27
2018-11-26T13:10:46.436Z,21.50
2018-11-26T13:13:13.955Z,20.10
2018-11-26T13:15:41.466Z,21.50
2018-11-26T13:18:08.986Z,22.50
2018-11-26T13:20:36.504Z,21.10
2018-11-26T13:23:05.297Z,20.50
2018-11-26T13:25:34.171Z,20.90
2018-11-26T13:28:02.660Z,20.50
2018-11-26T13:30:34.207Z,21.53
2018-11-26T13:33:03.162Z,19.30
2018-11-26T13:35:30.662Z,21.60
2018-11-26T13:37:58.425Z,21.90
2018-11-26T13:40:26.074Z,20.90
2018-11-26T13:42:53.653Z,21.47
2018-11-26T13:45:26.498Z,19.67
2018-11-26T13:47:54.071Z,20.63
2018-11-26T13:50:24.664Z,18.80
2018-11-26T13:52:52.235Z,19.37
2018-11-26T13:55:19.681Z,20.80
2018-11-26T13:57:47.093Z,19.57
2018-11-26T14:00:15.522Z,20.03
2018-11-26T14:02:43.070Z,20.80
2018-11-26T14:05:13.537Z,21.67
2018-11-26T14:07:41.085Z,19.60
2018-11-26T14:10:10.079Z,22.07
2018-11-26T14:12:37.609Z,19.40
2018-11-26T14:15:08.575Z,19.53
2018-11-26T14:17:36.176Z,21.30
2018-11-26T14:20:05.286Z,19.37
2018-11-26T14:22:32.834Z,19.90
2018-11-26T14:25:00.364Z,19.57
2018-11-26T14:27:27.842Z,19.73
2018-11-26T14:29:55.394Z,19.67
2018-11-26T14:32:23.125Z,21.07
2018-11-26T14:34:50.735Z,21.07
2018-11-26T14:37:18.196Z,21.03
2018-11-26T14:39:45.850Z,21.10
2018-11-26T14:42:13.534Z,21.60
2018-11-26T14:44:41.101Z,19.47
2018-11-26T14:47:08.601Z,19.60
2018-11-26T14:49:36.086Z,20.80
2018-11-26T14:52:03.669Z,20.67
2018-11-26T14:54:31.304Z,21.07
2018-11-26T14:56:58.950Z,18.67
2018-11-26T14:59:27.426Z,19.00
2018-11-26T15:01:54.936Z,19.37
2018-11-26T15:04:22.572Z,18.80
2018-11-26T15:06:50.188Z,21.13
2018-11-26T15:09:17.694Z,20.53
2018-11-26T15:11:45.187Z,18.10
2018-11-26T15:14:12.800Z,18.90
2018-11-26T15:16:40.348Z,19.20
2018-11-26T15:19:07.948Z,17.77
2018-11-26T15:21:35.453Z,19.80
2018-11-26T15:24:03.525Z,17.60
2018-11-26T15:26:31.116Z,17.23
2018-11-26T15:28:58.656Z,18.63
2018-11-26T15:31:26.193Z,17.37
2018-11-26T15:33:53.659Z,19.20
2018-11-26T15:36:21.124Z,20.07
2018-11-26T15:38:48.586Z,19.30
2018-11-26T15:41:16.095Z,18.90
2018-11-26T15:43:43.575Z,18.40
2018-11-26T15:46:11.046Z,17.07
2018-11-26T15:48:38.993Z,16.43
2018-11-26T15:51:06.477Z,18.40
2018-11-26T15:53:33.983Z,17.60
2018-11-26T15:56:01.524Z,18.50
2018-11-26T15:58:29.151Z,18.27
2018-11-26T16:00:56.614Z,18.33
2018-11-26T16:03:24.115Z,18.23
2018-11-26T16:05:51.707Z,20.43
2018-11-26T16:08:19.207Z,19.33
2018-11-26T16:10:46.703Z,20.80
2018-11-26T16:13:15.353Z,20.57
2018-11-26T16:15:43.715Z,19.47
2018-11-26T16:18:14.069Z,20.57
2018-11-26T16:20:41.678Z,19.30
2018-11-26T16:23:09.913Z,20.37
2018-11-26T16:25:39.601Z,19.00
2018-11-26T16:28:07.189Z,19.60
2018-11-26T16:30:34.690Z,19.63
2018-11-26T16:33:02.296Z,19.07
2018-11-26T16:35:31.250Z,20.17
2018-11-26T16:37:58.999Z,23.10
2018-11-26T16:40:26.488Z,21.17
2018-11-26T16:42:54.057Z,20.90
2018-11-26T16:45:22.841Z,24.77
2018-11-26T16:47:51.308Z,24.97
2018-11-26T16:50:19.898Z,25.43
2018-11-26T16:52:47.484Z,24.83
2018-11-26T16:55:15.764Z,27.10
2018-11-26T16:57:43.249Z,23.93
2018-11-26T17:00:15.897Z,26.00
2018-11-26T17:02:43.547Z,35.20
2018-11-26T17:05:13.668Z,23.00
2018-11-26T17:07:41.956Z,21.17
2018-11-26T17:10:10.057Z,21.10
2018-11-26T17:12:37.781Z,20.40
2018-11-26T17:15:07.598Z,19.40
2018-11-26T17:17:35.119Z,21.10
2018-11-26T17:20:02.679Z,21.00
2018-11-26T17:22:30.354Z,18.77
2018-11-26T17:24:57.866Z,17.47
2018-11-26T17:27:25.419Z,19.20
2018-11-26T17:29:53.140Z,19.03
2018-11-26T17:32:20.574Z,19.20
2018-11-26T17:34:48.020Z,17.57
2018-11-26T17:37:15.628Z,19.37
2018-11-26T17:39:43.205Z,17.57
2018-11-26T17:42:10.648Z,21.70
2018-11-26T17:44:38.940Z,21.27
2018-11-26T17:47:06.507Z,19.33
2018-11-26T17:49:34.013Z,21.87
2018-11-26T17:52:01.520Z,23.90
2018-11-26T17:54:30.111Z,21.37
2018-11-26T17:56:57.656Z,22.60
2018-11-26T17:59:25.147Z,26.30
2018-11-26T18:01:52.639Z,25.67
2018-11-26T18:04:21.268Z,24.20
2018-11-26T18:06:48.745Z,21.00
2018-11-26T18:09:16.276Z,20.53
2018-11-26T18:11:43.820Z,20.43
2018-11-26T18:14:11.303Z,19.50
2018-11-26T18:16:38.786Z,20.10
2018-11-26T18:19:06.346Z,19.73
2018-11-26T18:21:33.947Z,22.43
2018-11-26T18:24:01.493Z,22.07
2018-11-26T18:26:30.120Z,20.73
2018-11-26T18:28:57.624Z,20.70
2018-11-26T18:31:25.156Z,21.50
2018-11-26T18:33:52.745Z,21.33
2018-11-26T18:36:20.280Z,20.70
2018-11-26T18:38:48.543Z,22.00
2018-11-26T18:41:17.040Z,20.70
2018-11-26T18:43:45.140Z,20.73
2018-11-26T18:46:13.706Z,21.07
2018-11-26T18:48:43.059Z,21.13
2018-11-26T18:51:12.719Z,21.07
2018-11-26T18:53:40.292Z,20.57
2018-11-26T18:56:08.456Z,20.07
2018-11-26T18:58:37.034Z,21.20
2018-11-26T19:01:06.793Z,20.87
2018-11-26T19:03:35.068Z,19.00
2018-11-26T19:06:02.884Z,21.43
2018-11-26T19:08:30.409Z,21.13
2018-11-26T19:11:09.060Z,21.03
2018-11-26T19:13:52.627Z,17.97
2018-11-26T19:16:22.233Z,18.90
2018-11-26T19:18:49.874Z,20.40
2018-11-26T19:21:20.907Z,19.70
2018-11-26T19:23:48.464Z,20.90
2018-11-26T19:26:15.927Z,22.50
2018-11-26T19:28:43.740Z,25.20
2018-11-26T19:31:11.362Z,23.10
2018-11-26T19:33:38.918Z,20.00
2018-11-26T19:36:06.795Z,22.50
2018-11-26T19:38:34.284Z,22.47
2018-11-26T19:41:01.806Z,23.37
2018-11-26T19:43:29.298Z,20.63
2018-11-26T19:45:56.915Z,21.73
2018-11-26T19:48:24.450Z,22.83
2018-11-26T19:50:52.210Z,21.30
2018-11-26T19:53:19.785Z,20.07
2018-11-26T19:55:47.299Z,20.60
2018-11-26T19:58:14.759Z,22.00
2018-11-26T20:00:42.273Z,20.90
2018-11-26T20:03:20.347Z,21.00
2018-11-26T20:05:52.076Z,20.27
2018-11-26T20:08:19.621Z,20.77
2018-11-26T20:10:47.185Z,20.07
2018-11-26T20:13:14.693Z,21.27
2018-11-26T20:15:42.214Z,19.23
2018-11-26T20:18:09.749Z,20.53
2018-11-26T20:20:37.288Z,19.93
2018-11-26T20:23:05.551Z,21.73
2018-11-26T20:25:33.035Z,20.77
2018-11-26T20:28:00.558Z,19.93
2018-11-26T20:30:28.045Z,18.90
2018-11-26T20:32:55.537Z,18.37
2018-11-26T20:35:23.434Z,21.93
2018-11-26T20:37:51.083Z,19.70
2018-11-26T20:40:18.604Z,18.07
2018-11-26T20:42:51.493Z,19.30
2018-11-26T20:45:19.105Z,20.20
2018-11-26T20:47:47.638Z,16.73
2018-11-26T20:50:24.281Z,18.20
2018-11-26T20:52:51.846Z,18.93
2018-11-26T20:55:20.452Z,19.67
2018-11-26T20:57:49.161Z,18.57
2018-11-26T21:00:21.018Z,18.93
2018-11-26T21:02:50.220Z,19.10
2018-11-26T21:05:17.810Z,18.40
2018-11-26T21:07:45.352Z,18.47
2018-11-26T21:10:14.100Z,17.70
2018-11-26T21:12:41.673Z,16.70
2018-11-26T21:15:13.339Z,19.27
2018-11-26T21:17:41.506Z,17.70
2018-11-26T21:20:17.906Z,18.23
2018-11-26T21:22:45.508Z,17.30
2018-11-26T21:25:14.535Z,20.67
2018-11-26T21:27:42.263Z,18.23
2018-11-26T21:30:14.980Z,19.87
2018-11-26T21:32:42.629Z,18.07
2018-11-26T21:35:11.461Z,20.33
2018-11-26T21:37:40.115Z,18.90
2018-11-26T21:40:09.181Z,18.27
2018-11-26T21:42:36.802Z,18.83
2018-11-26T21:45:08.137Z,19.53
2018-11-26T21:47:35.775Z,18.27
2018-11-26T21:50:03.543Z,18.17
2018-11-26T21:52:31.125Z,18.57
2018-11-26T21:54:58.742Z,18.13
2018-11-26T21:57:26.581Z,19.50
2018-11-26T21:59:54.245Z,18.77
2018-11-26T22:02:21.785Z,18.57
2018-11-26T22:04:49.428Z,18.57
2018-11-26T22:07:17.054Z,18.40
2018-11-26T22:09:59.999Z,21.03
2018-11-26T22:12:27.675Z,20.57
2018-11-26T22:14:55.301Z,18.30
2018-11-26T22:17:22.975Z,18.60
2018-11-26T22:19:50.628Z,19.07
2018-11-26T22:22:18.355Z,18.10
2018-11-26T22:24:45.948Z,18.47
2018-11-26T22:27:13.532Z,18.50
2018-11-26T22:29:41.133Z,21.00
2018-11-26T22:32:08.837Z,19.63
2018-11-26T22:34:36.548Z,20.70
2018-11-26T22:37:04.247Z,19.50
2018-11-26T22:39:31.926Z,19.07
2018-11-26T22:41:59.664Z,21.47
2018-11-26T22:44:27.384Z,18.07
2018-11-26T22:46:54.966Z,20.50
2018-11-26T22:49:22.696Z,19.13
2018-11-26T22:51:51.671Z,20.87
2018-11-26T22:54:19.115Z,20.90
2018-11-26T22:56:46.797Z,20.10
2018-11-26T22:59:14.468Z,18.97
2018-11-26T23:01:42.071Z,19.10
2018-11-26T23:04:09.706Z,19.70
2018-11-26T23:06:37.325Z,20.80
2018-11-26T23:09:07.447Z,19.97
2018-11-26T23:11:35.132Z,19.40
2018-11-26T23:14:02.737Z,19.63
2018-11-26T23:16:31.277Z,20.77
2018-11-26T23:18:58.829Z,21.17
2018-11-26T23:21:26.470Z,20.23
2018-11-26T23:23:53.944Z,19.53
2018-11-26T23:26:21.553Z,19.53
2018-11-26T23:28:49.200Z,20.37
2018-11-26T23:31:18.441Z,20.57
2018-11-26T23:33:46.101Z,19.87
2018-11-26T23:36:13.691Z,19.60
2018-11-26T23:38:41.321Z,18.63
2018-11-26T23:41:08.844Z,21.37
2018-11-26T23:43:37.186Z,19.97
2018-11-26T23:46:04.765Z,20.93
2018-11-26T23:48:32.296Z,20.23
2018-11-26T23:50:59.907Z,19.17
2018-11-26T23:53:27.413Z,20.57
2018-11-26T23:55:54.986Z,19.47
2018-11-26T23:58:22.576Z,21.97
